Terminal Aerodrome Forecast
Issued by NWS Wilmington, OH

Current Version | Previous Version | Text Only | Print | Product List | Glossary Off
Versions: 1 2 3 4 5 6 7 8 9 10 11 12 13 14 15 16 17 18 19 20 21 22 23 24 25

000
FTUS41 KILN 191700
TAFDAY
TAF
KDAY 191740Z 1918/2018 23008KT P6SM SCT040
     FM200000 22007KT P6SM VCTS BKN040CB
     FM200400 21006KT P6SM SCT040
     FM201000 21005KT 4SM BR FEW015
     FM201400 23006KT P6SM SCT035=

USA.gov is the U.S. government's official web portal to all federal, state and local government web resources and services.